1873 NOT_NAMED (1873032S12436)


IBTrACS version v04r00. Visit IBTrACS website for data access.
Please direct all questions to the IBTrACS Q and A forum

Storm track - Intensity - Wind Radii - Intensity Data - Source Data - All data

Summary Information

Storm ID 1873032S12436
Start Jan 31 18Z
End Feb 7 06Z
ATCF IDs
Track status Best track data.

Storm track plot

Map of storm track

Intensity plots

No Intensity information for this storm


Radial wind information

No radial wind information for this storm


Position and Intensity Table

BASIN ISO_TIME_________ NATURE LAT LON
degrees north degrees east
SI 1873-01-31 18:00:00 NR -12.00 76.00
SI 21:00:00 NR -12.31 75.66
SI 1873-02-01 00:00:00 NR -12.61 75.32
SI 03:00:00 NR -12.91 74.96
SI 06:00:00 NR -13.20 74.60
SI 09:00:00 NR -13.48 74.22
SI 12:00:00 NR -13.75 73.84
SI 15:00:00 NR -14.02 73.46
SI 18:00:00 NR -14.30 73.10
SI 21:00:00 NR -14.58 72.77
SI 1873-02-02 00:00:00 NR -14.86 72.46
SI 03:00:00 NR -15.17 72.14
SI 06:00:00 NR -15.50 71.80
SI 09:00:00 NR -15.87 71.41
SI 12:00:00 NR -16.27 71.00
SI 15:00:00 NR -16.68 70.59
SI 18:00:00 NR -17.10 70.20
SI 21:00:00 NR -17.50 69.85
SI 1873-02-03 00:00:00 NR -17.91 69.52
SI 03:00:00 NR -18.31 69.21
SI 06:00:00 NR -18.70 68.90
SI 09:00:00 NR -19.07 68.58
SI 12:00:00 NR -19.43 68.28
SI 15:00:00 NR -19.81 67.98
SI 18:00:00 NR -20.20 67.70
SI 21:00:00 NR -20.66 67.41
SI 1873-02-04 00:00:00 NR -21.14 67.14
SI 03:00:00 NR -21.60 66.90
SI 06:00:00 NR -22.00 66.70
SI 09:00:00 NR -22.31 66.55
SI 12:00:00 NR -22.57 66.44
SI 15:00:00 NR -22.79 66.36
SI 18:00:00 NR -23.00 66.30
SI 21:00:00 NR -23.22 66.23
SI 1873-02-05 00:00:00 NR -23.44 66.18
SI 03:00:00 NR -23.66 66.13
SI 06:00:00 NR -23.90 66.10
SI 09:00:00 NR -24.17 66.06
SI 12:00:00 NR -24.46 66.03
SI 15:00:00 NR -24.74 66.01
SI 18:00:00 NR -25.00 66.00
SI 21:00:00 NR -25.18 65.99
SI 1873-02-06 00:00:00 NR -25.35 66.01
SI 03:00:00 NR -25.55 66.04
SI 06:00:00 NR -25.80 66.10
SI 09:00:00 NR -26.18 66.19
SI 12:00:00 NR -26.61 66.30
SI 15:00:00 NR -27.07 66.44
SI 18:00:00 NR -27.50 66.60
SI 21:00:00 NR -27.88 66.77
SI 1873-02-07 00:00:00 NR -28.21 66.94
SI 03:00:00 NR -28.51 67.12
SI 06:00:00 NR -28.80 67.30

Source Information

Agency Information
USA
TOKYO
CMA
HKO
NEWDELHI
REUNION
BOM
NADI
WELLINGTON
DS824
TD9636 cons_worldwide_trop_cyclone_18710101-19891231-005:Line=1335
TD9635
NEUMANN
MLC

All available IBTrACS Data

SEASON BASIN SUBBASIN ISO_TIME_________ NATURE LAT LON DIST2LAND LANDFALL IFLAG USA SSHS TD9636 LAT TD9636 LON TD9636 STAGE STORM SPEED STORM DIR
Year degrees north degrees east km km 1 degrees north degrees east kts degrees
1873 SI MM 1873-01-31 18:00:00 NR -12.00 76.00 2069 2069 __________O___ -1 -12.00 76.00 7 9 227
1873 SI MM 21:00:00 NR -12.31 75.66 2107 2053 __________P___ -1 -12.31 75.66 7 9 228
1873 SI MM 1873-02-01 00:00:00 NR -12.61 75.32 2053 2009 __________P___ -1 -12.61 75.32 7 9 228
1873 SI MM 03:00:00 NR -12.91 74.96 2009 1955 __________P___ -1 -12.91 74.96 7 9 230
1873 SI MM 06:00:00 NR -13.20 74.60 1955 1902 __________O___ -1 -13.20 74.60 7 9 232
1873 SI MM 09:00:00 NR -13.48 74.22 1902 1863 __________P___ -1 -13.48 74.22 7 9 233
1873 SI MM 12:00:00 NR -13.75 73.84 1853 1809 __________P___ -1 -13.75 73.84 7 9 234
1873 SI MM 15:00:00 NR -14.02 73.46 1809 1756 __________P___ -1 -14.02 73.46 7 9 233
1873 SI MM 18:00:00 NR -14.30 73.10 1756 1713 __________O___ -1 -14.30 73.10 7 9 230
1873 SI MM 21:00:00 NR -14.58 72.77 1713 1674 __________P___ -1 -14.58 72.77 7 8 228
1873 SI MM 1873-02-02 00:00:00 NR -14.86 72.46 1670 1631 __________P___ -1 -14.86 72.46 7 9 226
1873 SI MM 03:00:00 NR -15.17 72.14 1617 1575 __________P___ -1 -15.17 72.14 7 9 225
1873 SI MM 06:00:00 NR -15.50 71.80 1575 1522 __________O___ -1 -15.50 71.80 7 10 225
1873 SI MM 09:00:00 NR -15.87 71.41 1518 1466 __________P___ -1 -15.87 71.41 7 11 225
1873 SI MM 12:00:00 NR -16.27 71.00 1463 1408 __________P___ -1 -16.27 71.00 7 11 224
1873 SI MM 15:00:00 NR -16.68 70.59 1408 1353 __________P___ -1 -16.68 70.59 7 11 223
1873 SI MM 18:00:00 NR -17.10 70.20 1353 1310 __________O___ -1 -17.10 70.20 7 11 221
1873 SI MM 21:00:00 NR -17.50 69.85 1300 1258 __________P___ -1 -17.50 69.85 7 10 219
1873 SI MM 1873-02-03 00:00:00 NR -17.91 69.52 1258 1216 __________P___ -1 -17.91 69.52 7 10 217
1873 SI MM 03:00:00 NR -18.31 69.21 1216 1176 __________P___ -1 -18.31 69.21 7 10 217
1873 SI MM 06:00:00 NR -18.70 68.90 1176 1140 __________O___ -1 -18.70 68.90 7 10 218
1873 SI MM 09:00:00 NR -19.07 68.58 1138 1102 __________P___ -1 -19.07 68.58 7 9 219
1873 SI MM 12:00:00 NR -19.43 68.28 1102 1066 __________P___ -1 -19.43 68.28 7 9 218
1873 SI MM 15:00:00 NR -19.81 67.98 1066 1032 __________P___ -1 -19.81 67.98 7 9 215
1873 SI MM 18:00:00 NR -20.20 67.70 1032 1000 __________O___ -1 -20.20 67.70 7 10 212
1873 SI MM 21:00:00 NR -20.66 67.41 1000 980 __________P___ -1 -20.66 67.41 7 11 209
1873 SI MM 1873-02-04 00:00:00 NR -21.14 67.14 971 954 __________P___ -1 -21.14 67.14 7 11 207
1873 SI MM 03:00:00 NR -21.60 66.90 955 940 __________P___ -1 -21.60 66.90 7 10 205
1873 SI MM 06:00:00 NR -22.00 66.70 941 933 __________O___ -1 -22.00 66.70 7 8 204
1873 SI MM 09:00:00 NR -22.31 66.55 928 923 __________P___ -1 -22.31 66.55 7 6 203
1873 SI MM 12:00:00 NR -22.57 66.44 926 926 __________P___ -1 -22.57 66.44 7 5 200
1873 SI MM 15:00:00 NR -22.79 66.36 931 922 __________P___ -1 -22.79 66.36 7 5 197
1873 SI MM 18:00:00 NR -23.00 66.30 928 925 __________O___ -1 -23.00 66.30 7 5 196
1873 SI MM 21:00:00 NR -23.22 66.23 925 925 __________P___ -1 -23.22 66.23 7 5 194
1873 SI MM 1873-02-05 00:00:00 NR -23.44 66.18 933 931 __________P___ -1 -23.44 66.18 7 5 191
1873 SI MM 03:00:00 NR -23.66 66.13 935 935 __________P___ -1 -23.66 66.13 7 5 189
1873 SI MM 06:00:00 NR -23.90 66.10 944 944 __________O___ -1 -23.90 66.10 7 5 188
1873 SI MM 09:00:00 NR -24.17 66.06 957 952 __________P___ -1 -24.17 66.06 7 6 188
1873 SI MM 12:00:00 NR -24.46 66.03 962 962 __________P___ -1 -24.46 66.03 7 6 183
1873 SI MM 15:00:00 NR -24.74 66.01 972 972 __________P___ -1 -24.74 66.01 7 5 0
1873 SI MM 18:00:00 NR -25.00 66.00 987 987 __________O___ -1 -25.00 66.00 7 4 0
1873 SI MM 21:00:00 NR -25.18 65.99 998 998 __________P___ -1 -25.18 65.99 7 4 0
1873 SI MM 1873-02-06 00:00:00 NR -25.35 66.01 1010 1010 __________P___ -1 -25.35 66.01 7 4 174
1873 SI MM 03:00:00 NR -25.55 66.04 1016 1016 __________P___ -1 -25.55 66.04 7 5 168
1873 SI MM 06:00:00 NR -25.80 66.10 1042 1042 __________O___ -1 -25.80 66.10 7 6 168
1873 SI MM 09:00:00 NR -26.18 66.19 1075 1075 __________P___ -1 -26.18 66.19 7 8 167
1873 SI MM 12:00:00 NR -26.61 66.30 1109 1109 __________P___ -1 -26.61 66.30 7 9 165
1873 SI MM 15:00:00 NR -27.07 66.44 1151 1151 __________P___ -1 -27.07 66.44 7 9 164
1873 SI MM 18:00:00 NR -27.50 66.60 1194 1194 __________O___ -1 -27.50 66.60 7 9 161
1873 SI MM 21:00:00 NR -27.88 66.77 1237 1237 __________P___ -1 -27.88 66.77 7 8 157
1873 SI MM 1873-02-07 00:00:00 NR -28.21 66.94 1267 1267 __________P___ -1 -28.21 66.94 7 7 154
1873 SI MM 03:00:00 NR -28.51 67.12 1303 1303 __________P___ -1 -28.51 67.12 7 7 152
1873 SI MM 06:00:00 NR -28.80 67.30 1340 __________O___ -1 -28.80 67.30 7 7 151